Brundidge, Alabama
Current Conditions -  °F | °C
As of 4:26 PM on Sunday 21 Dec 2014 (Local Time) from KTOI Reporting Station
Haze Haze  
Wind Chill: 54°   Ceiling: 500
Heat Index: 54°   Visibility: 2.5mi
Dew Point: 51°   Wind: 5mph
Humidity: 90%   Direction: 40°NE
Pressure: 30.07"   Gusts: NA
Location:  31.72°N, 85.82°W
Report Text: KTOI 212226Z AUTO 04004KT 2 1/2SM BR BKN005 OVC012 12/11 A3007 RMK AO2 T01220106
Loading
Personal Weather Stations






























Interactive Weather Map New forecast layout! Learn more

10-Day Weather Forecast

Advertisements
Track Severe Weather on mobile